Time;durP1;ratioP1;P1;durP2;ratioP2;P2;SDS_P1;SDS_P2;PMS_P1;PMS_P2;Temp;Humidity;BMP_temperature;BMP_pressure;BME280_temperature;BME280_humidity;BME280_pressure;Samples;Min_cycle;Max_cycle;Signal;HPM_P1;HPM_P2
2022/12/28 00:00:29;;;;;;;12.73;5.20;;;;;;;;;;5029926;28;20037;-79
2022/12/28 00:02:56;;;;;;;13.53;5.30;;;;;;;;;;5031110;28;20028;-80
2022/12/28 00:05:21;;;;;;;19.33;6.40;;;;;;;;;;5029656;28;20033;-80
2022/12/28 00:07:47;;;;;;;14.33;5.77;;;;;;;;;;5030080;28;20075;-79
2022/12/28 00:10:13;;;;;;;13.43;5.70;;;;;;;;;;5030065;28;20037;-78
2022/12/28 00:12:38;;;;;;;9.67;5.53;;;;;;;;;;5030034;28;20025;-79
2022/12/28 00:15:04;;;;;;;14.70;5.30;;;;;;;;;;5029643;28;20037;-80
2022/12/28 00:17:30;;;;;;;12.43;5.83;;;;;;;;;;5030863;28;20041;-79
2022/12/28 00:19:56;;;;;;;13.60;4.60;;;;;;;;;;5031638;28;20091;-79
2022/12/28 00:22:21;;;;;;;8.70;4.40;;;;;;;;;;5030977;28;20029;-79
2022/12/28 00:24:47;;;;;;;12.83;4.60;;;;;;;;;;5029485;28;20025;-80
2022/12/28 00:27:12;;;;;;;21.97;6.97;;;;;;;;;;5031268;28;20393;-79
2022/12/28 00:29:39;;;;;;;7.60;3.97;;;;;;;;;;5029927;28;20512;-79
2022/12/28 00:32:04;;;;;;;9.97;4.67;;;;;;;;;;5031161;28;20458;-80
2022/12/28 00:34:30;;;;;;;13.20;5.43;;;;;;;;;;5030141;28;20064;-80
2022/12/28 00:36:55;;;;;;;10.73;5.23;;;;;;;;;;5032897;28;20029;-81
2022/12/28 00:39:21;;;;;;;15.40;5.10;;;;;;;;;;5050344;28;20032;-79
2022/12/28 00:41:47;;;;;;;17.40;6.00;;;;;;;;;;5048893;28;20044;-78
2022/12/28 00:44:12;;;;;;;14.53;5.73;;;;;;;;;;5049636;28;20183;-78
2022/12/28 00:46:38;;;;;;;12.30;5.57;;;;;;;;;;5049664;28;20040;-79
2022/12/28 00:49:03;;;;;;;10.87;5.13;;;;;;;;;;5051120;28;20055;-79
2022/12/28 00:51:29;;;;;;;12.03;5.20;;;;;;;;;;5054350;28;20028;-80
2022/12/28 00:53:54;;;;;;;13.43;5.83;;;;;;;;;;5052289;28;20029;-79
2022/12/28 00:56:21;;;;;;;15.43;6.60;;;;;;;;;;5052232;28;20029;-79
2022/12/28 00:58:47;;;;;;;8.33;4.90;;;;;;;;;;5053518;28;20070;-79
2022/12/28 01:01:18;;;;;;;12.23;5.20;;;;;;;;;;5053447;28;20452;-80
2022/12/28 01:03:44;;;;;;;12.90;5.03;;;;;;;;;;5052133;28;20083;-80
2022/12/28 01:06:12;;;;;;;16.23;5.97;;;;;;;;;;5052121;28;20397;-80
2022/12/28 01:08:39;;;;;;;9.07;4.90;;;;;;;;;;5053429;28;20021;-79
2022/12/28 01:11:08;;;;;;;15.57;5.33;;;;;;;;;;5053421;28;20021;-80
2022/12/28 01:13:35;;;;;;;12.30;5.50;;;;;;;;;;5052510;28;20033;-78
2022/12/28 01:16:14;;;;;;;11.90;4.77;;;;;;;;;;5052450;28;20029;-79
2022/12/28 01:18:39;;;;;;;9.10;4.67;;;;;;;;;;5052292;28;20488;-80
2022/12/28 01:21:26;;;;;;;10.03;5.50;;;;;;;;;;5053101;28;20025;-80
2022/12/28 01:23:54;;;;;;;13.30;5.07;;;;;;;;;;5053485;28;20036;-79
2022/12/28 01:26:20;;;;;;;12.50;5.03;;;;;;;;;;5052498;28;20392;-79
2022/12/28 01:28:45;;;;;;;12.37;4.80;;;;;;;;;;5051995;28;20141;-79
2022/12/28 01:31:13;;;;;;;12.77;5.03;;;;;;;;;;5051815;28;20021;-80
2022/12/28 01:33:39;;;;;;;8.47;4.03;;;;;;;;;;5053426;28;20460;-80
2022/12/28 01:36:13;;;;;;;10.47;4.57;;;;;;;;;;5051614;28;20438;-80
2022/12/28 01:38:39;;;;;;;11.50;4.80;;;;;;;;;;5051820;28;20041;-79
2022/12/28 01:41:10;;;;;;;9.67;4.67;;;;;;;;;;5052850;28;20072;-80
2022/12/28 01:43:44;;;;;;;14.03;5.30;;;;;;;;;;5052010;28;20029;-79
2022/12/28 01:46:16;;;;;;;12.00;5.60;;;;;;;;;;5051845;28;20033;-79
2022/12/28 01:48:53;;;;;;;12.07;5.03;;;;;;;;;;5053365;28;20033;-80
2022/12/28 01:51:20;;;;;;;11.73;5.93;;;;;;;;;;5051831;28;20051;-79
2022/12/28 01:53:49;;;;;;;10.83;4.77;;;;;;;;;;5053407;28;20048;-79
2022/12/28 01:56:14;;;;;;;14.20;5.23;;;;;;;;;;5051519;28;20266;-79
2022/12/28 01:58:40;;;;;;;12.60;6.83;;;;;;;;;;5052840;28;20107;-79
2022/12/28 02:01:06;;;;;;;11.93;4.47;;;;;;;;;;5052566;28;20484;-79
2022/12/28 02:03:32;;;;;;;10.30;5.07;;;;;;;;;;5051088;28;20119;-81
2022/12/28 02:06:00;;;;;;;12.20;5.03;;;;;;;;;;5052431;28;20032;-80
2022/12/28 02:08:40;;;;;;;10.13;4.80;;;;;;;;;;5051267;28;20021;-79
2022/12/28 02:11:07;;;;;;;9.60;3.97;;;;;;;;;;5052709;28;20048;-80
2022/12/28 02:13:33;;;;;;;12.63;5.00;;;;;;;;;;5053196;28;20492;-79
2022/12/28 02:15:59;;;;;;;13.27;5.33;;;;;;;;;;5051304;28;20068;-79
2022/12/28 02:18:25;;;;;;;10.87;4.10;;;;;;;;;;5051314;28;20056;-79
2022/12/28 02:21:25;;;;;;;12.23;3.97;;;;;;;;;;5034550;28;20444;-80
2022/12/28 02:24:08;;;;;;;9.93;4.43;;;;;;;;;;5051028;28;20120;-79
2022/12/28 02:26:55;;;;;;;14.87;5.77;;;;;;;;;;5050967;28;20128;-79
2022/12/28 02:29:23;;;;;;;11.33;4.50;;;;;;;;;;5052414;28;20112;-79
2022/12/28 02:32:02;;;;;;;14.13;4.50;;;;;;;;;;5051152;28;20038;-79
2022/12/28 02:34:54;;;;;;;14.03;4.70;;;;;;;;;;5050877;28;20029;-79
2022/12/28 02:37:25;;;;;;;12.10;5.00;;;;;;;;;;5047500;28;20044;-80
2022/12/28 02:40:14;;;;;;;11.27;4.18;;;;;;;;;;5051907;28;20075;-79
2022/12/28 02:42:40;;;;;;;9.77;3.77;;;;;;;;;;5051622;28;20459;-79
2022/12/28 02:51:18;;;;;;;5.97;3.27;;;;;;;;;;5052401;28;20031;-79
2022/12/28 02:56:05;;;;;;;8.93;3.97;;;;;;;;;;5050944;28;20028;-80
2022/12/28 02:57:09;;;;;;;8.23;3.50;;;;;;;;;;5051996;28;20068;-79
2022/12/28 03:00:07;;;;;;;11.37;4.00;;;;;;;;;;5034977;28;20044;-79
2022/12/28 03:02:33;;;;;;;5.90;3.13;;;;;;;;;;5051592;28;20033;-79
2022/12/28 03:08:25;;;;;;;10.90;3.90;;;;;;;;;;5051316;28;20044;-79
2022/12/28 03:11:08;;;;;;;9.77;3.90;;;;;;;;;;5049793;28;20017;-79
2022/12/28 03:14:01;;;;;;;9.10;3.93;;;;;;;;;;5051622;28;20037;-79
2022/12/28 03:31:07;;;;;;;10.10;3.77;;;;;;;;;;5051625;28;20574;-79
2022/12/28 03:33:43;;;;;;;6.43;3.13;;;;;;;;;;5050906;28;20102;-80
2022/12/28 03:36:32;;;;;;;9.40;3.37;;;;;;;;;;5050419;28;20524;-79
2022/12/28 03:39:13;;;;;;;8.53;3.10;;;;;;;;;;5050009;28;20074;-79
2022/12/28 03:41:46;;;;;;;7.40;3.20;;;;;;;;;;5049669;28;20068;-78
2022/12/28 03:44:26;;;;;;;6.47;3.00;;;;;;;;;;5049915;28;20112;-80
2022/12/28 03:46:58;;;;;;;5.93;2.73;;;;;;;;;;5049860;28;20052;-80
2022/12/28 03:49:24;;;;;;;10.35;3.17;;;;;;;;;;5049910;28;20116;-80
2022/12/28 03:51:51;;;;;;;6.53;2.70;;;;;;;;;;5049827;28;20105;-80
2022/12/28 03:54:17;;;;;;;6.23;2.80;;;;;;;;;;5049396;28;20020;-79
2022/12/28 03:56:48;;;;;;;5.43;3.00;;;;;;;;;;5033097;28;20041;-79
2022/12/28 03:59:14;;;;;;;6.53;3.07;;;;;;;;;;5033056;28;20112;-79
2022/12/28 04:01:40;;;;;;;8.37;2.77;;;;;;;;;;5049299;28;20060;-80
2022/12/28 04:04:05;;;;;;;4.33;2.87;;;;;;;;;;5049583;28;20409;-79
2022/12/28 04:06:31;;;;;;;6.97;2.57;;;;;;;;;;5050949;28;20029;-79
2022/12/28 04:08:56;;;;;;;6.63;3.20;;;;;;;;;;5051012;28;20360;-79
2022/12/28 04:11:22;;;;;;;6.80;2.80;;;;;;;;;;5050399;28;20048;-79
2022/12/28 04:13:47;;;;;;;10.27;2.63;;;;;;;;;;5049718;28;20021;-77
2022/12/28 04:16:14;;;;;;;8.53;2.90;;;;;;;;;;5049107;28;20460;-79
2022/12/28 04:18:41;;;;;;;3.90;2.50;;;;;;;;;;5048485;28;20033;-79
2022/12/28 04:21:08;;;;;;;6.80;2.93;;;;;;;;;;5049713;28;20028;-79
2022/12/28 04:23:33;;;;;;;6.43;2.90;;;;;;;;;;5052641;28;20421;-79
2022/12/28 04:26:05;;;;;;;4.67;2.83;;;;;;;;;;5037579;28;20021;-81
2022/12/28 04:28:31;;;;;;;7.77;3.10;;;;;;;;;;5055082;28;20082;-79
2022/12/28 04:30:58;;;;;;;8.60;2.83;;;;;;;;;;5036590;28;20029;-79
2022/12/28 04:33:24;;;;;;;5.73;2.10;;;;;;;;;;5053175;28;20025;-77
2022/12/28 04:35:50;;;;;;;8.83;2.40;;;;;;;;;;5054468;28;20139;-79
2022/12/28 04:38:16;;;;;;;5.67;2.60;;;;;;;;;;5053751;28;20033;-79
2022/12/28 04:40:42;;;;;;;6.00;2.20;;;;;;;;;;5052875;28;20047;-80
2022/12/28 04:43:07;;;;;;;4.57;2.20;;;;;;;;;;5053388;28;20417;-79
2022/12/28 04:45:33;;;;;;;6.30;2.80;;;;;;;;;;5053132;28;20033;-79
2022/12/28 04:47:59;;;;;;;9.23;4.13;;;;;;;;;;5053259;28;20025;-79
2022/12/28 04:50:26;;;;;;;6.23;3.10;;;;;;;;;;5054826;28;20028;-78
2022/12/28 04:52:51;;;;;;;6.97;3.33;;;;;;;;;;5036504;28;20028;-79
2022/12/28 04:55:17;;;;;;;9.50;2.43;;;;;;;;;;5053063;28;20496;-79
2022/12/28 04:57:44;;;;;;;5.17;2.90;;;;;;;;;;5054457;28;20516;-78
2022/12/28 05:00:10;;;;;;;6.83;2.50;;;;;;;;;;5052747;28;20028;-79
2022/12/28 05:02:35;;;;;;;8.57;2.97;;;;;;;;;;5052951;28;20357;-80
2022/12/28 05:05:01;;;;;;;7.37;3.60;;;;;;;;;;5054030;28;20029;-80
2022/12/28 05:07:27;;;;;;;10.80;2.93;;;;;;;;;;5052360;28;20039;-79
2022/12/28 05:09:53;;;;;;;11.50;3.33;;;;;;;;;;5052158;28;20071;-79
2022/12/28 05:12:19;;;;;;;7.90;3.03;;;;;;;;;;5052158;28;20055;-79
2022/12/28 05:14:44;;;;;;;5.73;2.90;;;;;;;;;;5053921;28;20041;-78
2022/12/28 05:17:11;;;;;;;7.87;3.10;;;;;;;;;;5053566;28;20033;-78
2022/12/28 05:19:37;;;;;;;5.43;2.60;;;;;;;;;;5051925;28;20472;-80
2022/12/28 05:22:02;;;;;;;9.17;3.23;;;;;;;;;;5053600;28;20078;-79
2022/12/28 05:24:28;;;;;;;8.30;3.30;;;;;;;;;;5052343;28;20029;-78
2022/12/28 05:26:54;;;;;;;9.17;3.17;;;;;;;;;;5051730;28;20117;-80
2022/12/28 05:29:19;;;;;;;5.07;2.43;;;;;;;;;;5052318;28;20408;-78
2022/12/28 05:31:45;;;;;;;8.27;2.80;;;;;;;;;;5052239;28;20021;-79
2022/12/28 05:34:11;;;;;;;7.13;3.00;;;;;;;;;;5052686;28;20056;-79
2022/12/28 05:36:38;;;;;;;4.63;2.10;;;;;;;;;;5051770;28;20098;-79
2022/12/28 05:39:04;;;;;;;3.97;2.20;;;;;;;;;;5052939;28;20025;-81
2022/12/28 05:41:30;;;;;;;5.50;2.73;;;;;;;;;;5051261;28;20370;-79
2022/12/28 05:43:58;;;;;;;5.33;3.50;;;;;;;;;;5051677;28;20100;-79
2022/12/28 05:46:26;;;;;;;5.73;2.80;;;;;;;;;;5050814;28;20039;-77
2022/12/28 05:48:55;;;;;;;7.97;2.80;;;;;;;;;;5051446;28;20439;-79
2022/12/28 05:51:24;;;;;;;6.50;3.20;;;;;;;;;;5051288;28;20017;-80
2022/12/28 05:53:50;;;;;;;10.10;3.50;;;;;;;;;;5051143;28;20388;-80
2022/12/28 05:56:21;;;;;;;6.20;3.53;;;;;;;;;;5051583;28;20028;-80
2022/12/28 05:58:58;;;;;;;5.63;2.70;;;;;;;;;;5051665;28;20139;-79
2022/12/28 06:01:26;;;;;;;5.63;2.67;;;;;;;;;;5050885;28;20041;-79
2022/12/28 06:03:55;;;;;;;8.57;3.10;;;;;;;;;;5051244;28;20522;-78
2022/12/28 06:06:21;;;;;;;6.23;2.80;;;;;;;;;;5051483;28;20029;-81
2022/12/28 06:08:48;;;;;;;6.40;2.93;;;;;;;;;;5050931;28;20029;-80
2022/12/28 06:11:17;;;;;;;5.70;2.90;;;;;;;;;;5051495;28;20388;-79
2022/12/28 06:13:43;;;;;;;6.63;3.13;;;;;;;;;;5050640;28;20108;-78
2022/12/28 06:16:12;;;;;;;5.67;2.87;;;;;;;;;;5050815;28;20187;-80
2022/12/28 06:18:38;;;;;;;6.53;3.00;;;;;;;;;;5052377;28;20031;-77
2022/12/28 06:21:10;;;;;;;6.27;2.70;;;;;;;;;;5051000;28;20029;-78
2022/12/28 06:23:36;;;;;;;8.02;3.38;;;;;;;;;;5052084;28;20393;-79
2022/12/28 06:26:04;;;;;;;9.13;3.13;;;;;;;;;;5052337;28;20108;-79
2022/12/28 06:28:29;;;;;;;10.57;3.33;;;;;;;;;;5050635;28;20453;-78
2022/12/28 06:31:07;;;;;;;5.23;2.70;;;;;;;;;;5051369;28;20023;-83
2022/12/28 06:33:33;;;;;;;5.83;3.37;;;;;;;;;;5050981;28;20032;-80
2022/12/28 06:35:59;;;;;;;15.10;3.73;;;;;;;;;;5052180;28;20032;-78
2022/12/28 06:38:26;;;;;;;8.57;3.23;;;;;;;;;;5051625;28;20365;-81
2022/12/28 06:40:52;;;;;;;6.20;3.13;;;;;;;;;;5051070;28;20049;-78
2022/12/28 06:43:17;;;;;;;6.07;3.00;;;;;;;;;;5050919;28;20039;-79
2022/12/28 06:45:54;;;;;;;9.27;3.33;;;;;;;;;;5050518;28;20416;-79
2022/12/28 06:48:19;;;;;;;6.63;3.53;;;;;;;;;;5051912;28;20025;-78
2022/12/28 06:50:54;;;;;;;9.63;3.47;;;;;;;;;;5050884;28;20052;-79
2022/12/28 06:53:19;;;;;;;6.97;3.20;;;;;;;;;;5050892;28;20029;-78
2022/12/28 06:55:52;;;;;;;9.53;4.60;;;;;;;;;;5051382;28;20052;-78
2022/12/28 06:58:18;;;;;;;8.67;3.67;;;;;;;;;;5052000;28;20244;-78
2022/12/28 07:00:43;;;;;;;13.17;4.03;;;;;;;;;;5052199;28;20029;-80
2022/12/28 07:03:09;;;;;;;8.90;3.90;;;;;;;;;;5052256;28;20035;-79
2022/12/28 07:05:34;;;;;;;7.03;3.73;;;;;;;;;;5034008;28;20111;-77
2022/12/28 07:08:00;;;;;;;5.80;3.23;;;;;;;;;;5050271;28;20024;-78
2022/12/28 07:10:25;;;;;;;10.57;3.57;;;;;;;;;;5050188;28;20116;-79
2022/12/28 07:12:51;;;;;;;8.73;3.47;;;;;;;;;;5050092;28;20496;-78
2022/12/28 07:15:16;;;;;;;9.93;4.27;;;;;;;;;;5050170;28;20404;-79
2022/12/28 07:17:42;;;;;;;5.07;3.13;;;;;;;;;;5051712;28;20445;-78
2022/12/28 07:20:08;;;;;;;12.30;4.17;;;;;;;;;;5050061;28;20031;-79
2022/12/28 07:22:33;;;;;;;12.33;3.77;;;;;;;;;;5049679;28;20028;-78
2022/12/28 07:25:00;;;;;;;6.73;3.57;;;;;;;;;;5050076;28;20119;-81
2022/12/28 07:27:25;;;;;;;7.57;3.87;;;;;;;;;;5051215;28;20021;-79
2022/12/28 07:29:51;;;;;;;10.47;4.27;;;;;;;;;;5051459;28;20029;-79
2022/12/28 07:32:16;;;;;;;14.87;4.30;;;;;;;;;;5051117;28;20095;-80
2022/12/28 07:34:42;;;;;;;8.70;3.57;;;;;;;;;;5049998;28;20025;-79
2022/12/28 07:37:07;;;;;;;11.67;4.23;;;;;;;;;;5051028;28;20053;-79
2022/12/28 07:39:34;;;;;;;9.57;4.20;;;;;;;;;;5051202;28;20082;-80
2022/12/28 07:42:00;;;;;;;11.43;5.07;;;;;;;;;;5049768;28;20045;-80
2022/12/28 07:44:25;;;;;;;6.40;3.33;;;;;;;;;;5050048;28;20106;-79
2022/12/28 07:46:51;;;;;;;13.37;4.20;;;;;;;;;;5051000;28;20096;-79
2022/12/28 07:49:17;;;;;;;11.67;4.17;;;;;;;;;;5049743;28;20389;-79
2022/12/28 07:51:44;;;;;;;12.23;4.27;;;;;;;;;;5049365;28;20449;-79
2022/12/28 07:54:09;;;;;;;8.43;4.17;;;;;;;;;;5050716;28;20342;-78
2022/12/28 07:56:35;;;;;;;7.97;4.30;;;;;;;;;;5051447;28;20079;-80
2022/12/28 07:59:04;;;;;;;12.87;4.50;;;;;;;;;;5053601;28;20024;-79
2022/12/28 08:01:31;;;;;;;4.03;3.33;;;;;;;;;;5054597;28;20389;-79
2022/12/28 08:04:00;;;;;;;7.60;3.57;;;;;;;;;;5053291;28;20365;-79
2022/12/28 08:06:27;;;;;;;6.77;3.57;;;;;;;;;;5053047;28;20021;-80
2022/12/28 08:08:56;;;;;;;7.10;3.93;;;;;;;;;;5055135;28;20058;-79
2022/12/28 08:11:25;;;;;;;10.50;3.80;;;;;;;;;;5053555;28;20032;-80
2022/12/28 08:13:53;;;;;;;6.17;3.33;;;;;;;;;;5036932;28;20055;-79
2022/12/28 08:16:21;;;;;;;11.90;4.07;;;;;;;;;;5055303;28;20029;-79
2022/12/28 08:18:47;;;;;;;9.47;3.67;;;;;;;;;;5054720;28;20037;-80
2022/12/28 08:21:14;;;;;;;9.60;5.17;;;;;;;;;;5054580;28;20192;-81
2022/12/28 08:23:40;;;;;;;8.53;4.00;;;;;;;;;;5052794;28;20059;-80
2022/12/28 08:26:17;;;;;;;6.40;4.30;;;;;;;;;;5054481;28;20061;-79
2022/12/28 08:28:44;;;;;;;7.77;3.40;;;;;;;;;;5054009;28;20021;-79
2022/12/28 08:31:32;;;;;;;7.67;3.90;;;;;;;;;;5053409;28;20113;-79
2022/12/28 08:33:59;;;;;;;7.40;3.83;;;;;;;;;;5054636;28;20029;-80
2022/12/28 08:36:25;;;;;;;7.40;3.63;;;;;;;;;;5054940;28;20460;-80
2022/12/28 08:38:51;;;;;;;6.13;3.43;;;;;;;;;;5053179;28;20053;-78
2022/12/28 08:41:20;;;;;;;10.93;4.30;;;;;;;;;;5053338;28;20124;-79
2022/12/28 08:43:46;;;;;;;12.23;4.47;;;;;;;;;;5052481;28;20025;-79
2022/12/28 08:46:17;;;;;;;13.57;4.40;;;;;;;;;;5054582;28;20025;-80
2022/12/28 08:48:43;;;;;;;11.33;4.50;;;;;;;;;;5054384;28;20492;-79
2022/12/28 08:51:12;;;;;;;13.27;4.77;;;;;;;;;;5054206;28;20408;-79
2022/12/28 08:53:37;;;;;;;5.93;3.93;;;;;;;;;;5053105;28;20025;-79
2022/12/28 08:56:11;;;;;;;15.00;5.03;;;;;;;;;;5054468;28;20087;-79
2022/12/28 08:58:39;;;;;;;9.73;4.07;;;;;;;;;;5054148;28;20039;-80
2022/12/28 09:01:07;;;;;;;11.03;4.67;;;;;;;;;;5052267;28;20400;-78
2022/12/28 09:03:37;;;;;;;7.60;3.77;;;;;;;;;;5052591;28;20040;-80
2022/12/28 09:06:09;;;;;;;15.10;5.20;;;;;;;;;;5052713;28;20024;-81
2022/12/28 09:08:35;;;;;;;9.45;4.80;;;;;;;;;;5052167;28;20024;-80
2022/12/28 09:11:03;;;;;;;11.20;4.93;;;;;;;;;;5054193;28;20050;-79
2022/12/28 09:13:29;;;;;;;11.03;4.57;;;;;;;;;;5052546;28;20025;-79
2022/12/28 09:15:56;;;;;;;11.00;4.63;;;;;;;;;;5053662;28;20036;-77
2022/12/28 09:18:21;;;;;;;8.90;4.37;;;;;;;;;;5052105;28;20021;-81
2022/12/28 09:20:47;;;;;;;9.77;4.67;;;;;;;;;;5051972;28;20028;-79
2022/12/28 09:23:12;;;;;;;8.77;3.67;;;;;;;;;;5053573;28;20028;-79
2022/12/28 09:25:40;;;;;;;10.73;4.33;;;;;;;;;;5051868;28;20025;-81
2022/12/28 09:28:06;;;;;;;14.93;4.13;;;;;;;;;;5053584;28;20033;-81
2022/12/28 09:30:32;;;;;;;10.83;5.23;;;;;;;;;;5068009;28;20162;-78
2022/12/28 09:35:41;;;;;;;13.93;5.03;;;;;;;;;;5073510;28;20043;-79
2022/12/28 09:38:06;;;;;;;11.13;4.50;;;;;;;;;;5068468;28;20100;-80
2022/12/28 09:40:36;;;;;;;13.30;4.23;;;;;;;;;;5061433;28;20037;-79
2022/12/28 09:43:02;;;;;;;14.00;4.70;;;;;;;;;;5051918;28;20163;-79
2022/12/28 09:45:28;;;;;;;11.37;5.50;;;;;;;;;;5072625;28;20048;-79
2022/12/28 09:48:02;;;;;;;10.43;4.90;;;;;;;;;;5065393;28;20067;-79
2022/12/28 09:50:34;;;;;;;15.50;4.53;;;;;;;;;;5051359;28;20102;-80
2022/12/28 09:53:15;;;;;;;9.17;4.10;;;;;;;;;;5066847;28;20024;-80
2022/12/28 09:55:47;;;;;;;7.50;3.80;;;;;;;;;;5068039;28;20461;-78
2022/12/28 09:58:15;;;;;;;10.93;4.33;;;;;;;;;;5051529;28;20458;-79
2022/12/28 10:00:54;;;;;;;14.63;4.67;;;;;;;;;;5052324;28;20016;-78
2022/12/28 10:03:34;;;;;;;14.23;5.43;;;;;;;;;;5051308;28;20057;-80
2022/12/28 10:06:00;;;;;;;7.07;4.50;;;;;;;;;;5051085;28;20397;-79
2022/12/28 10:08:27;;;;;;;9.90;4.50;;;;;;;;;;5051531;28;20025;-78
2022/12/28 10:10:58;;;;;;;7.27;4.10;;;;;;;;;;5066092;28;20357;-79
2022/12/28 10:13:28;;;;;;;14.43;7.07;;;;;;;;;;5053556;28;20029;-79
2022/12/28 10:15:54;;;;;;;16.97;5.53;;;;;;;;;;5034916;28;20037;-80
2022/12/28 10:18:25;;;;;;;14.07;4.63;;;;;;;;;;5051146;28;20040;-79
2022/12/28 10:20:52;;;;;;;11.20;5.07;;;;;;;;;;5049747;28;20051;-79
2022/12/28 10:23:24;;;;;;;11.17;5.10;;;;;;;;;;5051465;28;20079;-80
2022/12/28 10:25:52;;;;;;;11.60;4.17;;;;;;;;;;5052634;28;20029;-80
2022/12/28 10:28:21;;;;;;;8.80;4.83;;;;;;;;;;5052484;28;20029;-82
2022/12/28 10:31:01;;;;;;;11.63;3.77;;;;;;;;;;5051592;28;20021;-80
2022/12/28 10:33:27;;;;;;;17.00;4.63;;;;;;;;;;5070341;28;20075;-79
2022/12/28 10:35:54;;;;;;;9.40;3.80;;;;;;;;;;5071257;28;20051;-80
2022/12/28 10:38:23;;;;;;;12.60;4.17;;;;;;;;;;5060499;28;20565;-79
2022/12/28 10:41:04;;;;;;;11.33;4.43;;;;;;;;;;5065442;28;20032;-79
2022/12/28 10:43:33;;;;;;;11.93;4.93;;;;;;;;;;5071677;28;20094;-79
2022/12/28 10:46:01;;;;;;;7.63;3.60;;;;;;;;;;5070021;28;20039;-79
2022/12/28 10:48:31;;;;;;;8.67;3.60;;;;;;;;;;5070787;28;20024;-80
2022/12/28 10:51:06;;;;;;;7.83;3.87;;;;;;;;;;5055882;28;20036;-80
2022/12/28 10:53:50;;;;;;;5.90;3.57;;;;;;;;;;5030489;28;20025;-80
2022/12/28 10:56:24;;;;;;;7.70;3.80;;;;;;;;;;5030348;28;20060;-79
2022/12/28 10:58:52;;;;;;;7.57;3.60;;;;;;;;;;5032108;28;20025;-80
2022/12/28 11:01:28;;;;;;;6.73;2.90;;;;;;;;;;5031634;28;20075;-80
2022/12/28 11:03:54;;;;;;;8.87;3.50;;;;;;;;;;5030710;28;20025;-80
2022/12/28 11:06:24;;;;;;;8.37;3.40;;;;;;;;;;5030335;28;20032;-79
2022/12/28 11:09:13;;;;;;;6.57;3.40;;;;;;;;;;5058335;28;20028;-78
2022/12/28 11:11:40;;;;;;;10.17;3.43;;;;;;;;;;5038890;28;20020;-77
2022/12/28 11:14:35;;;;;;;7.30;3.47;;;;;;;;;;5069768;28;20031;-79
2022/12/28 11:17:22;;;;;;;5.70;3.30;;;;;;;;;;5054375;28;20123;-79
2022/12/28 11:19:52;;;;;;;11.10;3.13;;;;;;;;;;5050644;28;20051;-82
2022/12/28 11:22:27;;;;;;;11.90;3.60;;;;;;;;;;5049765;28;20049;-80
2022/12/28 11:24:54;;;;;;;5.87;2.97;;;;;;;;;;5034073;28;20075;-78
2022/12/28 11:27:22;;;;;;;7.90;3.17;;;;;;;;;;5069811;28;20031;-78
2022/12/28 11:29:50;;;;;;;7.53;3.13;;;;;;;;;;5070700;28;20031;-80
2022/12/28 11:32:41;;;;;;;7.83;2.90;;;;;;;;;;5070522;28;20384;-79
2022/12/28 11:35:16;;;;;;;8.37;4.27;;;;;;;;;;5053048;28;20617;-80
2022/12/28 11:37:53;;;;;;;5.30;3.17;;;;;;;;;;5049288;28;20061;-78
2022/12/28 11:40:46;;;;;;;4.87;3.03;;;;;;;;;;5049371;28;20029;-80
2022/12/28 11:43:38;;;;;;;8.37;3.00;;;;;;;;;;5018919;28;20107;-81
2022/12/28 11:46:07;;;;;;;6.17;2.93;;;;;;;;;;5057487;28;20036;-80
2022/12/28 11:49:05;;;;;;;6.70;3.00;;;;;;;;;;5069520;28;20414;-79
2022/12/28 11:51:33;;;;;;;5.40;2.83;;;;;;;;;;5045288;28;20037;-81
2022/12/28 11:54:04;;;;;;;7.40;2.97;;;;;;;;;;5051090;28;20040;-81
2022/12/28 11:56:45;;;;;;;8.02;3.25;;;;;;;;;;5060661;28;20486;-80
2022/12/28 11:59:25;;;;;;;5.17;2.33;;;;;;;;;;5071061;28;20363;-79
2022/12/28 12:01:53;;;;;;;8.80;2.70;;;;;;;;;;5069106;28;20028;-79
2022/12/28 12:04:26;;;;;;;7.50;2.73;;;;;;;;;;5059416;28;20025;-81
2022/12/28 12:06:52;;;;;;;10.07;3.27;;;;;;;;;;5050983;28;20021;-79
2022/12/28 12:09:20;;;;;;;5.57;2.67;;;;;;;;;;5050939;28;20032;-80
2022/12/28 12:11:51;;;;;;;9.13;2.40;;;;;;;;;;5051334;28;20468;-80
2022/12/28 12:14:39;;;;;;;5.43;2.60;;;;;;;;;;5050854;28;20107;-80
2022/12/28 12:17:30;;;;;;;8.63;2.60;;;;;;;;;;5066482;28;20029;-81
2022/12/28 12:20:06;;;;;;;4.67;2.23;;;;;;;;;;5069551;28;20024;-80
2022/12/28 12:22:45;;;;;;;5.50;3.20;;;;;;;;;;5058956;28;20116;-81
2022/12/28 12:25:35;;;;;;;3.97;2.07;;;;;;;;;;5050157;28;20025;-79
2022/12/28 12:28:09;;;;;;;5.47;3.07;;;;;;;;;;5061277;28;20048;-76
2022/12/28 12:30:36;;;;;;;7.70;2.90;;;;;;;;;;5052973;28;20044;-79
2022/12/28 12:33:13;;;;;;;6.87;3.33;;;;;;;;;;5070853;28;20032;-80
2022/12/28 12:36:21;;;;;;;12.53;3.00;;;;;;;;;;5052439;28;20028;-79
2022/12/28 12:39:03;;;;;;;4.47;2.67;;;;;;;;;;5052415;28;20051;-79
2022/12/28 12:41:48;;;;;;;5.83;2.60;;;;;;;;;;5050217;28;20041;-80
2022/12/28 12:44:19;;;;;;;9.03;2.87;;;;;;;;;;5052062;28;20480;-79
2022/12/28 12:47:08;;;;;;;5.25;3.10;;;;;;;;;;5067216;28;20024;-79
2022/12/28 12:49:55;;;;;;;10.83;3.13;;;;;;;;;;5032744;28;20504;-79
2022/12/28 12:52:58;;;;;;;6.17;2.87;;;;;;;;;;5032836;28;20112;-78
2022/12/28 12:55:41;;;;;;;8.43;2.87;;;;;;;;;;5032815;28;20034;-78
2022/12/28 12:58:06;;;;;;;6.40;2.43;;;;;;;;;;5071746;28;20178;-79
2022/12/28 13:00:41;;;;;;;6.03;2.67;;;;;;;;;;5072811;28;20107;-80
2022/12/28 13:03:18;;;;;;;5.80;2.50;;;;;;;;;;5056337;28;20024;-80
2022/12/28 13:05:52;;;;;;;7.93;2.78;;;;;;;;;;5033109;28;20172;-80
2022/12/28 13:08:46;;;;;;;6.03;2.67;;;;;;;;;;5032842;28;20478;-79
2022/12/28 13:11:13;;;;;;;5.43;2.87;;;;;;;;;;5065687;28;20059;-80
2022/12/28 13:13:42;;;;;;;7.50;2.95;;;;;;;;;;5071697;28;20028;-80
2022/12/28 13:16:10;;;;;;;5.73;3.00;;;;;;;;;;5073136;28;20048;-80
2022/12/28 13:18:36;;;;;;;6.63;2.60;;;;;;;;;;5042462;28;20570;-79
2022/12/28 13:21:04;;;;;;;7.60;3.33;;;;;;;;;;5068292;28;20116;-79
2022/12/28 13:23:31;;;;;;;5.47;2.53;;;;;;;;;;5038595;28;20496;-80
2022/12/28 13:25:59;;;;;;;10.33;3.17;;;;;;;;;;5064688;28;20116;-80
2022/12/28 13:28:30;;;;;;;7.43;2.80;;;;;;;;;;5061764;28;20206;-80
2022/12/28 13:31:21;;;;;;;7.67;3.03;;;;;;;;;;5070985;28;20124;-81
2022/12/28 13:33:57;;;;;;;5.13;2.67;;;;;;;;;;5043392;28;20024;-79
2022/12/28 13:36:22;;;;;;;9.20;2.50;;;;;;;;;;5061821;28;20468;-78
2022/12/28 13:39:10;;;;;;;7.45;3.08;;;;;;;;;;5066333;28;20020;-78
2022/12/28 13:41:36;;;;;;;6.03;2.63;;;;;;;;;;5039895;28;20059;-79
2022/12/28 13:44:24;;;;;;;7.00;2.97;;;;;;;;;;5063619;28;20025;-81
2022/12/28 13:46:57;;;;;;;4.67;2.80;;;;;;;;;;5052324;28;20029;-81
2022/12/28 13:49:25;;;;;;;6.37;2.77;;;;;;;;;;5069402;28;20410;-81
2022/12/28 13:51:51;;;;;;;6.00;2.90;;;;;;;;;;5066268;28;20060;-80
2022/12/28 13:54:17;;;;;;;11.27;3.43;;;;;;;;;;5043251;28;20357;-81
2022/12/28 13:56:44;;;;;;;8.10;3.77;;;;;;;;;;5071104;28;20024;-79
2022/12/28 13:59:15;;;;;;;8.00;3.23;;;;;;;;;;5054165;28;20504;-79
2022/12/28 14:01:43;;;;;;;14.68;4.95;;;;;;;;;;5067018;28;20016;-81
2022/12/28 14:04:14;;;;;;;6.53;3.10;;;;;;;;;;5050730;28;20369;-79
2022/12/28 14:06:41;;;;;;;8.95;3.67;;;;;;;;;;5064450;28;20021;-79
2022/12/28 14:09:10;;;;;;;7.10;2.97;;;;;;;;;;5055313;28;20117;-81
2022/12/28 14:11:36;;;;;;;13.15;3.33;;;;;;;;;;5039513;28;20027;-81
2022/12/28 14:14:02;;;;;;;8.13;3.93;;;;;;;;;;5062385;28;20047;-81
2022/12/28 14:16:29;;;;;;;3.88;2.10;;;;;;;;;;5062116;28;20036;-80
2022/12/28 14:18:54;;;;;;;5.27;1.97;;;;;;;;;;5057034;28;20154;-80
2022/12/28 14:21:39;;;;;;;10.43;3.70;;;;;;;;;;5051782;28;20385;-80
2022/12/28 14:24:19;;;;;;;5.68;2.60;;;;;;;;;;5062345;28;20399;-79
2022/12/28 14:26:53;;;;;;;8.25;2.47;;;;;;;;;;5048088;28;20036;-81
2022/12/28 14:29:26;;;;;;;6.55;2.90;;;;;;;;;;5052563;28;20036;-79
2022/12/28 14:32:02;;;;;;;7.17;3.10;;;;;;;;;;5057253;28;20031;-80
2022/12/28 14:34:36;;;;;;;7.53;2.50;;;;;;;;;;5059751;28;20021;-80
2022/12/28 14:37:01;;;;;;;6.63;2.83;;;;;;;;;;5051083;28;20404;-80
2022/12/28 14:39:36;;;;;;;6.73;2.73;;;;;;;;;;5068094;28;20044;-79
2022/12/28 14:42:05;;;;;;;4.87;2.60;;;;;;;;;;5041348;28;20049;-80
2022/12/28 14:44:41;;;;;;;9.67;3.23;;;;;;;;;;5060142;28;20037;-77
2022/12/28 14:47:45;;;;;;;5.87;2.60;;;;;;;;;;5051793;28;20033;-81
2022/12/28 14:50:22;;;;;;;7.47;4.13;;;;;;;;;;5049106;28;20020;-79
2022/12/28 14:52:49;;;;;;;7.47;3.40;;;;;;;;;;5056143;28;20034;-81
2022/12/28 14:55:51;;;;;;;9.33;4.40;;;;;;;;;;5034256;28;20086;-80
2022/12/28 14:58:23;;;;;;;4.35;2.65;;;;;;;;;;5071102;28;20012;-80
2022/12/28 15:01:10;;;;;;;10.23;2.85;;;;;;;;;;5055578;28;20115;-80
2022/12/28 15:03:56;;;;;;;4.93;2.60;;;;;;;;;;5038295;28;20054;-80
2022/12/28 15:06:27;;;;;;;7.63;3.40;;;;;;;;;;5060133;28;20025;-80
2022/12/28 15:08:55;;;;;;;10.23;3.00;;;;;;;;;;5050763;28;20467;-81
2022/12/28 15:11:22;;;;;;;6.87;3.87;;;;;;;;;;5069905;28;20029;-79
2022/12/28 15:13:48;;;;;;;7.40;3.80;;;;;;;;;;5063690;28;20055;-80
2022/12/28 15:16:16;;;;;;;7.53;3.70;;;;;;;;;;5059641;28;20027;-80
2022/12/28 15:18:43;;;;;;;6.63;3.30;;;;;;;;;;5056220;28;20047;-80
2022/12/28 15:21:16;;;;;;;8.23;3.90;;;;;;;;;;5065613;28;20052;-81
2022/12/28 15:23:42;;;;;;;8.10;3.97;;;;;;;;;;5050143;28;20506;-81
2022/12/28 15:26:08;;;;;;;8.23;3.40;;;;;;;;;;5057020;28;20107;-80